Aviation Digital Data Service (ADDS)

Output produced by METARs form (2223 UTC 23 March 2019)
found at http://www.aviationweather.gov/metar/data/
 
METAR text: UBBB 232200Z 16010KT 9999 BKN005 10/09 Q1012 R88/D NOSIG
Conditions at: UBBB (BAKU/BINE ARPT , AZ) observed 2200 UTC 23 March 2019
Temperature: 10.0°C (50°F)
Dewpoint: 9.0°C (48°F) [RH = 93%]
Pressure (altimeter): 29.88 inches Hg (1012.0 mb)
Winds: from the SSE (160 degrees) at 12 MPH (10 knots; 5.1 m/s)
Visibility: 6 or more miles (10+ km)
Ceiling: 500 feet AGL
Clouds: broken clouds at 500 feet AGL
Weather: no significant weather observed at this time

METAR text: UBBB 232130Z 16009KT 9999 BKN005 10/09 Q1012 R88/D NOSIG
Conditions at: UBBB (BAKU/BINE ARPT , AZ) observed 2130 UTC 23 March 2019
Temperature: 10.0°C (50°F)
Dewpoint: 9.0°C (48°F) [RH = 93%]
Pressure (altimeter): 29.88 inches Hg (1012.0 mb)
Winds: from the SSE (160 degrees) at 10 MPH (9 knots; 4.6 m/s)
Visibility: 6 or more miles (10+ km)
Ceiling: 500 feet AGL
Clouds: broken clouds at 500 feet AGL
Weather: no significant weather observed at this time

METAR text: UBBB 232100Z 17008KT 9999 BKN006 10/09 Q1013 R88/D NOSIG
Conditions at: UBBB (BAKU/BINE ARPT , AZ) observed 2100 UTC 23 March 2019
Temperature: 10.0°C (50°F)
Dewpoint: 9.0°C (48°F) [RH = 93%]
Pressure (altimeter): 29.91 inches Hg (1013.0 mb)
Winds: from the S (170 degrees) at 9 MPH (8 knots; 4.1 m/s)
Visibility: 6 or more miles (10+ km)
Ceiling: 600 feet AGL
Clouds: broken clouds at 600 feet AGL
Weather: no significant weather observed at this time

METAR text: UBBB 232030Z 17006KT 9999 BKN005 10/09 Q1013 R88/D NOSIG
Conditions at: UBBB (BAKU/BINE ARPT , AZ) observed 2030 UTC 23 March 2019
Temperature: 10.0°C (50°F)
Dewpoint: 9.0°C (48°F) [RH = 93%]
Pressure (altimeter): 29.91 inches Hg (1013.0 mb)
Winds: from the S (170 degrees) at 7 MPH (6 knots; 3.1 m/s)
Visibility: 6 or more miles (10+ km)
Ceiling: 500 feet AGL
Clouds: broken clouds at 500 feet AGL
Weather: no significant weather observed at this time

METAR text: UBBB 232000Z 17011KT 9999 BKN006 10/09 Q1013 R88/CLRD// NOSIG
Conditions at: UBBB (BAKU/BINE ARPT , AZ) observed 2000 UTC 23 March 2019
Temperature: 10.0°C (50°F)
Dewpoint: 9.0°C (48°F) [RH = 93%]
Pressure (altimeter): 29.91 inches Hg (1013.0 mb)
Winds: from the S (170 degrees) at 13 MPH (11 knots; 5.7 m/s)
Visibility: 6 or more miles (10+ km)
Ceiling: 600 feet AGL
Clouds: broken clouds at 600 feet AGL
Weather: no significant weather observed at this time

METAR text: UBBB 231930Z 18012KT 9999 BKN005 10/09 Q1013 R88/D NOSIG
Conditions at: UBBB (BAKU/BINE ARPT , AZ) observed 1930 UTC 23 March 2019
Temperature: 10.0°C (50°F)
Dewpoint: 9.0°C (48°F) [RH = 93%]
Pressure (altimeter): 29.91 inches Hg (1013.0 mb)
Winds: from the S (180 degrees) at 14 MPH (12 knots; 6.2 m/s)
Visibility: 6 or more miles (10+ km)
Ceiling: 500 feet AGL
Clouds: broken clouds at 500 feet AGL
Weather: no significant weather observed at this time

METAR text: UBBB 231900Z 18016KT 9999 BKN006 10/09 Q1013 R88/D NOSIG
Conditions at: UBBB (BAKU/BINE ARPT , AZ) observed 1900 UTC 23 March 2019
Temperature: 10.0°C (50°F)
Dewpoint: 9.0°C (48°F) [RH = 93%]
Pressure (altimeter): 29.91 inches Hg (1013.0 mb)
Winds: from the S (180 degrees) at 18 MPH (16 knots; 8.2 m/s)
Visibility: 6 or more miles (10+ km)
Ceiling: 600 feet AGL
Clouds: broken clouds at 600 feet AGL
Weather: no significant weather observed at this time

METAR text: UBBB 231830Z 18014KT 9999 BKN006 10/09 Q1013 R88/D NOSIG
Conditions at: UBBB (BAKU/BINE ARPT , AZ) observed 1830 UTC 23 March 2019
Temperature: 10.0°C (50°F)
Dewpoint: 9.0°C (48°F) [RH = 93%]
Pressure (altimeter): 29.91 inches Hg (1013.0 mb)
Winds: from the S (180 degrees) at 16 MPH (14 knots; 7.2 m/s)
Visibility: 6 or more miles (10+ km)
Ceiling: 600 feet AGL
Clouds: broken clouds at 600 feet AGL
Weather: no significant weather observed at this time

METAR text: UBBB 231800Z 18010KT 9999 BKN006 10/09 Q1013 R88/CLRD// NOSIG
Conditions at: UBBB (BAKU/BINE ARPT , AZ) observed 1800 UTC 23 March 2019
Temperature: 10.0°C (50°F)
Dewpoint: 9.0°C (48°F) [RH = 93%]
Pressure (altimeter): 29.91 inches Hg (1013.0 mb)
Winds: from the S (180 degrees) at 12 MPH (10 knots; 5.1 m/s)
Visibility: 6 or more miles (10+ km)
Ceiling: 600 feet AGL
Clouds: broken clouds at 600 feet AGL
Weather: no significant weather observed at this time

METAR text: UBBB 231730Z 17015KT 9999 BKN007 10/09 Q1013 R88/D NOSIG
Conditions at: UBBB (BAKU/BINE ARPT , AZ) observed 1730 UTC 23 March 2019
Temperature: 10.0°C (50°F)
Dewpoint: 9.0°C (48°F) [RH = 93%]
Pressure (altimeter): 29.91 inches Hg (1013.0 mb)
Winds: from the S (170 degrees) at 17 MPH (15 knots; 7.7 m/s)
Visibility: 6 or more miles (10+ km)
Ceiling: 700 feet AGL
Clouds: broken clouds at 700 feet AGL
Weather: no significant weather observed at this time

METAR text: UBBB 231700Z 17014KT 9999 BKN007 10/09 Q1013 R88/D NOSIG
Conditions at: UBBB (BAKU/BINE ARPT , AZ) observed 1700 UTC 23 March 2019
Temperature: 10.0°C (50°F)
Dewpoint: 9.0°C (48°F) [RH = 93%]
Pressure (altimeter): 29.91 inches Hg (1013.0 mb)
Winds: from the S (170 degrees) at 16 MPH (14 knots; 7.2 m/s)
Visibility: 6 or more miles (10+ km)
Ceiling: 700 feet AGL
Clouds: broken clouds at 700 feet AGL
Weather: no significant weather observed at this time

METAR text: UBBB 231630Z 18016KT 9999 SCT007 10/09 Q1013 R88/D NOSIG
Conditions at: UBBB (BAKU/BINE ARPT , AZ) observed 1630 UTC 23 March 2019
Temperature: 10.0°C (50°F)
Dewpoint: 9.0°C (48°F) [RH = 93%]
Pressure (altimeter): 29.91 inches Hg (1013.0 mb)
Winds: from the S (180 degrees) at 18 MPH (16 knots; 8.2 m/s)
Visibility: 6 or more miles (10+ km)
Ceiling: at least 12,000 feet AGL
Clouds: scattered clouds at 700 feet AGL
Weather: no significant weather observed at this time

METAR text: UBBB 231600Z 18015KT 9999 SCT007 10/09 Q1013 R88/D NOSIG
Conditions at: UBBB (BAKU/BINE ARPT , AZ) observed 1600 UTC 23 March 2019
Temperature: 10.0°C (50°F)
Dewpoint: 9.0°C (48°F) [RH = 93%]
Pressure (altimeter): 29.91 inches Hg (1013.0 mb)
Winds: from the S (180 degrees) at 17 MPH (15 knots; 7.7 m/s)
Visibility: 6 or more miles (10+ km)
Ceiling: at least 12,000 feet AGL
Clouds: scattered clouds at 700 feet AGL
Weather: no significant weather observed at this time

METAR text: UBBB 231530Z 18016KT 9999 FEW008 SCT100 10/09 Q1012 R88/D NOSIG
Conditions at: UBBB (BAKU/BINE ARPT , AZ) observed 1530 UTC 23 March 2019
Temperature: 10.0°C (50°F)
Dewpoint: 9.0°C (48°F) [RH = 93%]
Pressure (altimeter): 29.88 inches Hg (1012.0 mb)
Winds: from the S (180 degrees) at 18 MPH (16 knots; 8.2 m/s)
Visibility: 6 or more miles (10+ km)
Ceiling: at least 12,000 feet AGL
Clouds: few clouds at 800 feet AGL
scattered clouds at 10000 feet AGL
Weather: no significant weather observed at this time

METAR text: UBBB 231500Z 18016KT 9999 FEW009 SCT100 10/09 Q1012 R88/D NOSIG
Conditions at: UBBB (BAKU/BINE ARPT , AZ) observed 1500 UTC 23 March 2019
Temperature: 10.0°C (50°F)
Dewpoint: 9.0°C (48°F) [RH = 93%]
Pressure (altimeter): 29.88 inches Hg (1012.0 mb)
Winds: from the S (180 degrees) at 18 MPH (16 knots; 8.2 m/s)
Visibility: 6 or more miles (10+ km)
Ceiling: at least 12,000 feet AGL
Clouds: few clouds at 900 feet AGL
scattered clouds at 10000 feet AGL
Weather: no significant weather observed at this time

METAR text: UBBB 231430Z 18019KT 9999 FEW011 BKN100 11/09 Q1012 R88/D NOSIG
Conditions at: UBBB (BAKU/BINE ARPT , AZ) observed 1430 UTC 23 March 2019
Temperature: 11.0°C (52°F)
Dewpoint: 9.0°C (48°F) [RH = 87%]
Pressure (altimeter): 29.88 inches Hg (1012.0 mb)
Winds: from the S (180 degrees) at 22 MPH (19 knots; 9.8 m/s)
Visibility: 6 or more miles (10+ km)
Ceiling: 10000 feet AGL
Clouds: few clouds at 1100 feet AGL
broken clouds at 10000 feet AGL
Weather: no significant weather observed at this time

METAR text: UBBB 231400Z 18020G30KT 9999 FEW011 BKN100 11/09 Q1012 R88/D NOSIG
Conditions at: UBBB (BAKU/BINE ARPT , AZ) observed 1400 UTC 23 March 2019
Temperature: 11.0°C (52°F)
Dewpoint: 9.0°C (48°F) [RH = 87%]
Pressure (altimeter): 29.88 inches Hg (1012.0 mb)
Winds: from the S (180 degrees) at 23 MPH (20 knots; 10.3 m/s)
gusting to 34 MPH (30 knots; 15.4 m/s)
Visibility: 6 or more miles (10+ km)
Ceiling: 10000 feet AGL
Clouds: few clouds at 1100 feet AGL
broken clouds at 10000 feet AGL
Weather: no significant weather observed at this time

METAR text: UBBB 231330Z 18022G32KT 9999 FEW010 BKN100 11/09 Q1012 R88/D NOSIG
Conditions at: UBBB (BAKU/BINE ARPT , AZ) observed 1330 UTC 23 March 2019
Temperature: 11.0°C (52°F)
Dewpoint: 9.0°C (48°F) [RH = 87%]
Pressure (altimeter): 29.88 inches Hg (1012.0 mb)
Winds: from the S (180 degrees) at 25 MPH (22 knots; 11.3 m/s)
gusting to 37 MPH (32 knots; 16.5 m/s)
Visibility: 6 or more miles (10+ km)
Ceiling: 10000 feet AGL
Clouds: few clouds at 1000 feet AGL
broken clouds at 10000 feet AGL
Weather: no significant weather observed at this time

METAR text: UBBB 231300Z 18023KT 9999 FEW010 BKN100 11/09 Q1012 R88/D NOSIG
Conditions at: UBBB (BAKU/BINE ARPT , AZ) observed 1300 UTC 23 March 2019
Temperature: 11.0°C (52°F)
Dewpoint: 9.0°C (48°F) [RH = 87%]
Pressure (altimeter): 29.88 inches Hg (1012.0 mb)
Winds: from the S (180 degrees) at 26 MPH (23 knots; 11.8 m/s)
Visibility: 6 or more miles (10+ km)
Ceiling: 10000 feet AGL
Clouds: few clouds at 1000 feet AGL
broken clouds at 10000 feet AGL
Weather: no significant weather observed at this time

METAR text: UBBB 231230Z 18022G32KT 9999 FEW014 BKN100 12/09 Q1013 R88/D NOSIG
Conditions at: UBBB (BAKU/BINE ARPT , AZ) observed 1230 UTC 23 March 2019
Temperature: 12.0°C (54°F)
Dewpoint: 9.0°C (48°F) [RH = 82%]
Pressure (altimeter): 29.91 inches Hg (1013.0 mb)
Winds: from the S (180 degrees) at 25 MPH (22 knots; 11.3 m/s)
gusting to 37 MPH (32 knots; 16.5 m/s)
Visibility: 6 or more miles (10+ km)
Ceiling: 10000 feet AGL
Clouds: few clouds at 1400 feet AGL
broken clouds at 10000 feet AGL
Weather: no significant weather observed at this time

METAR text: UBBB 231200Z 18021KT 9999 FEW014 BKN100 13/09 Q1013 R88/D NOSIG
Conditions at: UBBB (BAKU/BINE ARPT , AZ) observed 1200 UTC 23 March 2019
Temperature: 13.0°C (55°F)
Dewpoint: 9.0°C (48°F) [RH = 77%]
Pressure (altimeter): 29.91 inches Hg (1013.0 mb)
Winds: from the S (180 degrees) at 24 MPH (21 knots; 10.8 m/s)
Visibility: 6 or more miles (10+ km)
Ceiling: 10000 feet AGL
Clouds: few clouds at 1400 feet AGL
broken clouds at 10000 feet AGL
Weather: no significant weather observed at this time

METAR text: UBBB 231130Z 18024KT 9999 SCT012 BKN100 12/09 Q1013 R88/D NOSIG
Conditions at: UBBB (BAKU/BINE ARPT , AZ) observed 1130 UTC 23 March 2019
Temperature: 12.0°C (54°F)
Dewpoint: 9.0°C (48°F) [RH = 82%]
Pressure (altimeter): 29.91 inches Hg (1013.0 mb)
Winds: from the S (180 degrees) at 28 MPH (24 knots; 12.3 m/s)
Visibility: 6 or more miles (10+ km)
Ceiling: 10000 feet AGL
Clouds: scattered clouds at 1200 feet AGL
broken clouds at 10000 feet AGL
Weather: no significant weather observed at this time

METAR text: UBBB 231100Z 18026KT 9999 SCT012 BKN100 13/10 Q1014 R88/D NOSIG
Conditions at: UBBB (BAKU/BINE ARPT , AZ) observed 1100 UTC 23 March 2019
Temperature: 13.0°C (55°F)
Dewpoint: 10.0°C (50°F) [RH = 82%]
Pressure (altimeter): 29.94 inches Hg (1014.0 mb)
Winds: from the S (180 degrees) at 30 MPH (26 knots; 13.4 m/s)
Visibility: 6 or more miles (10+ km)
Ceiling: 10000 feet AGL
Clouds: scattered clouds at 1200 feet AGL
broken clouds at 10000 feet AGL
Weather: no significant weather observed at this time

METAR text: UBBB 231030Z 18020G30KT 9999 SCT015 BKN100 13/09 Q1014 R88/D NOSIG
Conditions at: UBBB (BAKU/BINE ARPT , AZ) observed 1030 UTC 23 March 2019
Temperature: 13.0°C (55°F)
Dewpoint: 9.0°C (48°F) [RH = 77%]
Pressure (altimeter): 29.94 inches Hg (1014.0 mb)
Winds: from the S (180 degrees) at 23 MPH (20 knots; 10.3 m/s)
gusting to 34 MPH (30 knots; 15.4 m/s)
Visibility: 6 or more miles (10+ km)
Ceiling: 10000 feet AGL
Clouds: scattered clouds at 1500 feet AGL
broken clouds at 10000 feet AGL
Weather: no significant weather observed at this time

METAR text: UBBB 231000Z 19023G33KT 9999 SCT012 12/09 Q1015 R88/D NOSIG
Conditions at: UBBB (BAKU/BINE ARPT , AZ) observed 1000 UTC 23 March 2019
Temperature: 12.0°C (54°F)
Dewpoint: 9.0°C (48°F) [RH = 82%]
Pressure (altimeter): 29.97 inches Hg (1015.0 mb)
Winds: from the S (190 degrees) at 26 MPH (23 knots; 11.8 m/s)
gusting to 38 MPH (33 knots; 17.0 m/s)
Visibility: 6 or more miles (10+ km)
Ceiling: at least 12,000 feet AGL
Clouds: scattered clouds at 1200 feet AGL
Weather: no significant weather observed at this time

METAR text: UBBB 230930Z 19021G31KT 9999 BKN013 12/09 Q1015 R88/D NOSIG
Conditions at: UBBB (BAKU/BINE ARPT , AZ) observed 0930 UTC 23 March 2019
Temperature: 12.0°C (54°F)
Dewpoint: 9.0°C (48°F) [RH = 82%]
Pressure (altimeter): 29.97 inches Hg (1015.0 mb)
Winds: from the S (190 degrees) at 24 MPH (21 knots; 10.8 m/s)
gusting to 36 MPH (31 knots; 15.9 m/s)
Visibility: 6 or more miles (10+ km)
Ceiling: 1300 feet AGL
Clouds: broken clouds at 1300 feet AGL
Weather: no significant weather observed at this time

METAR text: UBBB 230900Z 18017KT 9999 BKN013 11/08 Q1015 R88/D NOSIG
Conditions at: UBBB (BAKU/BINE ARPT , AZ) observed 0900 UTC 23 March 2019
Temperature: 11.0°C (52°F)
Dewpoint: 8.0°C (46°F) [RH = 82%]
Pressure (altimeter): 29.97 inches Hg (1015.0 mb)
Winds: from the S (180 degrees) at 20 MPH (17 knots; 8.7 m/s)
Visibility: 6 or more miles (10+ km)
Ceiling: 1300 feet AGL
Clouds: broken clouds at 1300 feet AGL
Weather: no significant weather observed at this time

METAR text: UBBB 230830Z 19020KT 9999 BKN010 11/08 Q1016 R88/D NOSIG
Conditions at: UBBB (BAKU/BINE ARPT , AZ) observed 0830 UTC 23 March 2019
Temperature: 11.0°C (52°F)
Dewpoint: 8.0°C (46°F) [RH = 82%]
Pressure (altimeter): 30.00 inches Hg (1016.0 mb)
Winds: from the S (190 degrees) at 23 MPH (20 knots; 10.3 m/s)
Visibility: 6 or more miles (10+ km)
Ceiling: 1000 feet AGL
Clouds: broken clouds at 1000 feet AGL
Weather: no significant weather observed at this time

METAR text: UBBB 230800Z 19020KT 9999 BKN012 11/07 Q1017 R88/CLRD// NOSIG
Conditions at: UBBB (BAKU/BINE ARPT , AZ) observed 0800 UTC 23 March 2019
Temperature: 11.0°C (52°F)
Dewpoint: 7.0°C (45°F) [RH = 76%]
Pressure (altimeter): 30.03 inches Hg (1017.0 mb)
Winds: from the S (190 degrees) at 23 MPH (20 knots; 10.3 m/s)
Visibility: 6 or more miles (10+ km)
Ceiling: 1200 feet AGL
Clouds: broken clouds at 1200 feet AGL
Weather: no significant weather observed at this time

METAR text: UBBB 230730Z 18017KT 9999 BKN015 11/07 Q1017 R88/D NOSIG
Conditions at: UBBB (BAKU/BINE ARPT , AZ) observed 0730 UTC 23 March 2019
Temperature: 11.0°C (52°F)
Dewpoint: 7.0°C (45°F) [RH = 76%]
Pressure (altimeter): 30.03 inches Hg (1017.0 mb)
Winds: from the S (180 degrees) at 20 MPH (17 knots; 8.7 m/s)
Visibility: 6 or more miles (10+ km)
Ceiling: 1500 feet AGL
Clouds: broken clouds at 1500 feet AGL
Weather: no significant weather observed at this time

METAR text: UBBB 230700Z 19016KT 9999 SCT014 BKN100 11/07 Q1018 R88/D NOSIG
Conditions at: UBBB (BAKU/BINE ARPT , AZ) observed 0700 UTC 23 March 2019
Temperature: 11.0°C (52°F)
Dewpoint: 7.0°C (45°F) [RH = 76%]
Pressure (altimeter): 30.06 inches Hg (1018.0 mb)
Winds: from the S (190 degrees) at 18 MPH (16 knots; 8.2 m/s)
Visibility: 6 or more miles (10+ km)
Ceiling: 10000 feet AGL
Clouds: scattered clouds at 1400 feet AGL
broken clouds at 10000 feet AGL
Weather: no significant weather observed at this time

METAR text: UBBB 230630Z 16016KT 9999 SCT014 BKN100 10/06 Q1018 R88/D NOSIG
Conditions at: UBBB (BAKU/BINE ARPT , AZ) observed 0630 UTC 23 March 2019
Temperature: 10.0°C (50°F)
Dewpoint: 6.0°C (43°F) [RH = 76%]
Pressure (altimeter): 30.06 inches Hg (1018.0 mb)
Winds: from the SSE (160 degrees) at 18 MPH (16 knots; 8.2 m/s)
Visibility: 6 or more miles (10+ km)
Ceiling: 10000 feet AGL
Clouds: scattered clouds at 1400 feet AGL
broken clouds at 10000 feet AGL
Weather: no significant weather observed at this time

METAR text: UBBB 230600Z 17013KT 9999 SCT013 BKN100 10/06 Q1019 R88/CLRD// NOSIG
Conditions at: UBBB (BAKU/BINE ARPT , AZ) observed 0600 UTC 23 March 2019
Temperature: 10.0°C (50°F)
Dewpoint: 6.0°C (43°F) [RH = 76%]
Pressure (altimeter): 30.09 inches Hg (1019.0 mb)
Winds: from the S (170 degrees) at 15 MPH (13 knots; 6.7 m/s)
Visibility: 6 or more miles (10+ km)
Ceiling: 10000 feet AGL
Clouds: scattered clouds at 1300 feet AGL
broken clouds at 10000 feet AGL
Weather: no significant weather observed at this time

METAR text: UBBB 230530Z 16012KT 9999 FEW014 BKN100 09/06 Q1019 R88/D NOSIG
Conditions at: UBBB (BAKU/BINE ARPT , AZ) observed 0530 UTC 23 March 2019
Temperature: 9.0°C (48°F)
Dewpoint: 6.0°C (43°F) [RH = 81%]
Pressure (altimeter): 30.09 inches Hg (1019.0 mb)
Winds: from the SSE (160 degrees) at 14 MPH (12 knots; 6.2 m/s)
Visibility: 6 or more miles (10+ km)
Ceiling: 10000 feet AGL
Clouds: few clouds at 1400 feet AGL
broken clouds at 10000 feet AGL
Weather: no significant weather observed at this time

METAR text: UBBB 230500Z 15010KT 9999 BKN029 09/06 Q1019 R88/D NOSIG
Conditions at: UBBB (BAKU/BINE ARPT , AZ) observed 0500 UTC 23 March 2019
Temperature: 9.0°C (48°F)
Dewpoint: 6.0°C (43°F) [RH = 81%]
Pressure (altimeter): 30.09 inches Hg (1019.0 mb)
Winds: from the SSE (150 degrees) at 12 MPH (10 knots; 5.1 m/s)
Visibility: 6 or more miles (10+ km)
Ceiling: 2900 feet AGL
Clouds: broken clouds at 2900 feet AGL
Weather: no significant weather observed at this time

METAR text: UBBB 230430Z 15008KT CAVOK 08/06 Q1019 R88/D NOSIG
Conditions at: UBBB (BAKU/BINE ARPT , AZ) observed 0430 UTC 23 March 2019
Temperature: 8.0°C (46°F)
Dewpoint: 6.0°C (43°F) [RH = 87%]
Pressure (altimeter): 30.09 inches Hg (1019.0 mb)
Winds: from the SSE (150 degrees) at 9 MPH (8 knots; 4.1 m/s)
Visibility: 6 or more miles (10+ km)
Ceiling: ceiling and visibility are OK
Clouds: unknown
Weather: no significant weather observed at this time

METAR text: UBBB 230400Z 14007KT 9999 SCT031 07/06 Q1019 R88/D NOSIG
Conditions at: UBBB (BAKU/BINE ARPT , AZ) observed 0400 UTC 23 March 2019
Temperature: 7.0°C (45°F)
Dewpoint: 6.0°C (43°F) [RH = 93%]
Pressure (altimeter): 30.09 inches Hg (1019.0 mb)
Winds: from the SE (140 degrees) at 8 MPH (7 knots; 3.6 m/s)
Visibility: 6 or more miles (10+ km)
Ceiling: at least 12,000 feet AGL
Clouds: scattered clouds at 3100 feet AGL
Weather: no significant weather observed at this time

METAR text: UBBB 230330Z 00000KT 8000 BCFG BKN035 07/06 Q1019 R88/D NOSIG
Conditions at: UBBB (BAKU/BINE ARPT , AZ) observed 0330 UTC 23 March 2019
Temperature: 7.0°C (45°F)
Dewpoint: 6.0°C (43°F) [RH = 93%]
Pressure (altimeter): 30.09 inches Hg (1019.0 mb)
Winds: calm
Visibility: 5 miles ( 8 km)
Ceiling: 3500 feet AGL
Clouds: broken clouds at 3500 feet AGL
Weather: BCFG  (patches of fog)

METAR text: UBBB 230300Z 00000KT 9999 BKN035 07/06 Q1020 R88/CLRD// NOSIG
Conditions at: UBBB (BAKU/BINE ARPT , AZ) observed 0300 UTC 23 March 2019
Temperature: 7.0°C (45°F)
Dewpoint: 6.0°C (43°F) [RH = 93%]
Pressure (altimeter): 30.12 inches Hg (1020.0 mb)
Winds: calm
Visibility: 6 or more miles (10+ km)
Ceiling: 3500 feet AGL
Clouds: broken clouds at 3500 feet AGL
Weather: no significant weather observed at this time

METAR text: UBBB 230230Z 00000KT 9999 OVC037 07/06 Q1020 R88/D NOSIG
Conditions at: UBBB (BAKU/BINE ARPT , AZ) observed 0230 UTC 23 March 2019
Temperature: 7.0°C (45°F)
Dewpoint: 6.0°C (43°F) [RH = 93%]
Pressure (altimeter): 30.12 inches Hg (1020.0 mb)
Winds: calm
Visibility: 6 or more miles (10+ km)
Ceiling: 3700 feet AGL
Clouds: overcast cloud deck at 3700 feet AGL
Weather: no significant weather observed at this time

METAR text: UBBB 230200Z 32003KT 9999 OVC039 07/06 Q1020 R88/D NOSIG
Conditions at: UBBB (BAKU/BINE ARPT , AZ) observed 0200 UTC 23 March 2019
Temperature: 7.0°C (45°F)
Dewpoint: 6.0°C (43°F) [RH = 93%]
Pressure (altimeter): 30.12 inches Hg (1020.0 mb)
Winds: from the NW (320 degrees) at 3 MPH (3 knots; 1.5 m/s)
Visibility: 6 or more miles (10+ km)
Ceiling: 3900 feet AGL
Clouds: overcast cloud deck at 3900 feet AGL
Weather: no significant weather observed at this time

METAR text: UBBB 230130Z 32004KT 9999 OVC039 07/06 Q1020 R88/D NOSIG
Conditions at: UBBB (BAKU/BINE ARPT , AZ) observed 0130 UTC 23 March 2019
Temperature: 7.0°C (45°F)
Dewpoint: 6.0°C (43°F) [RH = 93%]
Pressure (altimeter): 30.12 inches Hg (1020.0 mb)
Winds: from the NW (320 degrees) at 5 MPH (4 knots; 2.1 m/s)
Visibility: 6 or more miles (10+ km)
Ceiling: 3900 feet AGL
Clouds: overcast cloud deck at 3900 feet AGL
Weather: no significant weather observed at this time

METAR text: UBBB 230100Z 33005KT 9999 OVC042 07/06 Q1020 R34/190068 R35/190065 NOSIG
Conditions at: UBBB (BAKU/BINE ARPT , AZ) observed 0100 UTC 23 March 2019
Temperature: 7.0°C (45°F)
Dewpoint: 6.0°C (43°F) [RH = 93%]
Pressure (altimeter): 30.12 inches Hg (1020.0 mb)
Winds: from the NNW (330 degrees) at 6 MPH (5 knots; 2.6 m/s)
Visibility: 6 or more miles (10+ km)
Ceiling: 4200 feet AGL
Clouds: overcast cloud deck at 4200 feet AGL
Weather: no significant weather observed at this time

METAR text: UBBB 230030Z 32007KT 9999 OVC041 07/06 Q1020 R34/190068 R35/190065 NOSIG
Conditions at: UBBB (BAKU/BINE ARPT , AZ) observed 0030 UTC 23 March 2019
Temperature: 7.0°C (45°F)
Dewpoint: 6.0°C (43°F) [RH = 93%]
Pressure (altimeter): 30.12 inches Hg (1020.0 mb)
Winds: from the NW (320 degrees) at 8 MPH (7 knots; 3.6 m/s)
Visibility: 6 or more miles (10+ km)
Ceiling: 4100 feet AGL
Clouds: overcast cloud deck at 4100 feet AGL
Weather: no significant weather observed at this time

METAR text: UBBB 230000Z 32009KT 9999 -RA OVC042 07/06 Q1021 R34/190068 R35/190065 NOSIG
Conditions at: UBBB (BAKU/BINE ARPT , AZ) observed 0000 UTC 23 March 2019
Temperature: 7.0°C (45°F)
Dewpoint: 6.0°C (43°F) [RH = 93%]
Pressure (altimeter): 30.15 inches Hg (1021.0 mb)
Winds: from the NW (320 degrees) at 10 MPH (9 knots; 4.6 m/s)
Visibility: 6 or more miles (10+ km)
Ceiling: 4200 feet AGL
Clouds: overcast cloud deck at 4200 feet AGL
Weather: -RA  (light rain)

METAR text: UBBB 222330Z 32009KT 9999 FEW011 OVC043 07/06 Q1021 R34/190068 R35/190065 NOSIG
Conditions at: UBBB (BAKU/BINE ARPT , AZ) observed 2330 UTC 22 March 2019
Temperature: 7.0°C (45°F)
Dewpoint: 6.0°C (43°F) [RH = 93%]
Pressure (altimeter): 30.15 inches Hg (1021.0 mb)
Winds: from the NW (320 degrees) at 10 MPH (9 knots; 4.6 m/s)
Visibility: 6 or more miles (10+ km)
Ceiling: 4300 feet AGL
Clouds: few clouds at 1100 feet AGL
overcast cloud deck at 4300 feet AGL
Weather: no significant weather observed at this time

METAR text: UBBB 222300Z 32011KT 9999 -RA FEW011 OVC043 07/06 Q1021 R34/190068 R35/190065 NOSIG
Conditions at: UBBB (BAKU/BINE ARPT , AZ) observed 2300 UTC 22 March 2019
Temperature: 7.0°C (45°F)
Dewpoint: 6.0°C (43°F) [RH = 93%]
Pressure (altimeter): 30.15 inches Hg (1021.0 mb)
Winds: from the NW (320 degrees) at 13 MPH (11 knots; 5.7 m/s)
Visibility: 6 or more miles (10+ km)
Ceiling: 4300 feet AGL
Clouds: few clouds at 1100 feet AGL
overcast cloud deck at 4300 feet AGL
Weather: -RA  (light rain)

METAR text: UBBB 222230Z 32010KT 9999 -RA SCT008 OVC043 08/06 Q1021 R88/D NOSIG
Conditions at: UBBB (BAKU/BINE ARPT , AZ) observed 2230 UTC 22 March 2019
Temperature: 8.0°C (46°F)
Dewpoint: 6.0°C (43°F) [RH = 87%]
Pressure (altimeter): 30.15 inches Hg (1021.0 mb)
Winds: from the NW (320 degrees) at 12 MPH (10 knots; 5.1 m/s)
Visibility: 6 or more miles (10+ km)
Ceiling: 4300 feet AGL
Clouds: scattered clouds at 800 feet AGL
overcast cloud deck at 4300 feet AGL
Weather: -RA  (light rain)

METAR text: UBBB 222200Z 32010KT 9999 SCT010 OVC041 08/06 Q1021 R88/D NOSIG
Conditions at: UBBB (BAKU/BINE ARPT , AZ) observed 2200 UTC 22 March 2019
Temperature: 8.0°C (46°F)
Dewpoint: 6.0°C (43°F) [RH = 87%]
Pressure (altimeter): 30.15 inches Hg (1021.0 mb)
Winds: from the NW (320 degrees) at 12 MPH (10 knots; 5.1 m/s)
Visibility: 6 or more miles (10+ km)
Ceiling: 4100 feet AGL
Clouds: scattered clouds at 1000 feet AGL
overcast cloud deck at 4100 feet AGL
Weather: no significant weather observed at this time

METAR text: UBBB 222130Z 32012KT 9999 BKN010 OVC040 08/06 Q1021 R88/D NOSIG
Conditions at: UBBB (BAKU/BINE ARPT , AZ) observed 2130 UTC 22 March 2019
Temperature: 8.0°C (46°F)
Dewpoint: 6.0°C (43°F) [RH = 87%]
Pressure (altimeter): 30.15 inches Hg (1021.0 mb)
Winds: from the NW (320 degrees) at 14 MPH (12 knots; 6.2 m/s)
Visibility: 6 or more miles (10+ km)
Ceiling: 1000 feet AGL
Clouds: broken clouds at 1000 feet AGL
overcast cloud deck at 4000 feet AGL
Weather: no significant weather observed at this time

METAR text: UBBB 222100Z 32016KT 9999 BKN010 OVC040 08/06 Q1021 R88/CLRD// NOSIG
Conditions at: UBBB (BAKU/BINE ARPT , AZ) observed 2100 UTC 22 March 2019
Temperature: 8.0°C (46°F)
Dewpoint: 6.0°C (43°F) [RH = 87%]
Pressure (altimeter): 30.15 inches Hg (1021.0 mb)
Winds: from the NW (320 degrees) at 18 MPH (16 knots; 8.2 m/s)
Visibility: 6 or more miles (10+ km)
Ceiling: 1000 feet AGL
Clouds: broken clouds at 1000 feet AGL
overcast cloud deck at 4000 feet AGL
Weather: no significant weather observed at this time

METAR text: UBBB 222030Z 32014KT 9999 BKN009 OVC038 08/06 Q1021 R88/D NOSIG
Conditions at: UBBB (BAKU/BINE ARPT , AZ) observed 2030 UTC 22 March 2019
Temperature: 8.0°C (46°F)
Dewpoint: 6.0°C (43°F) [RH = 87%]
Pressure (altimeter): 30.15 inches Hg (1021.0 mb)
Winds: from the NW (320 degrees) at 16 MPH (14 knots; 7.2 m/s)
Visibility: 6 or more miles (10+ km)
Ceiling: 900 feet AGL
Clouds: broken clouds at 900 feet AGL
overcast cloud deck at 3800 feet AGL
Weather: no significant weather observed at this time

METAR text: UBBB 222000Z 32011KT 9999 FEW012 OVC039 08/06 Q1021 R88/D NOSIG
Conditions at: UBBB (BAKU/BINE ARPT , AZ) observed 2000 UTC 22 March 2019
Temperature: 8.0°C (46°F)
Dewpoint: 6.0°C (43°F) [RH = 87%]
Pressure (altimeter): 30.15 inches Hg (1021.0 mb)
Winds: from the NW (320 degrees) at 13 MPH (11 knots; 5.7 m/s)
Visibility: 6 or more miles (10+ km)
Ceiling: 3900 feet AGL
Clouds: few clouds at 1200 feet AGL
overcast cloud deck at 3900 feet AGL
Weather: no significant weather observed at this time

METAR text: UBBB 221930Z 33012KT 9999 OVC041 08/05 Q1021 R88/D NOSIG
Conditions at: UBBB (BAKU/BINE ARPT , AZ) observed 1930 UTC 22 March 2019
Temperature: 8.0°C (46°F)
Dewpoint: 5.0°C (41°F) [RH = 81%]
Pressure (altimeter): 30.15 inches Hg (1021.0 mb)
Winds: from the NNW (330 degrees) at 14 MPH (12 knots; 6.2 m/s)
Visibility: 6 or more miles (10+ km)
Ceiling: 4100 feet AGL
Clouds: overcast cloud deck at 4100 feet AGL
Weather: no significant weather observed at this time

METAR text: UBBB 221900Z 32011KT 9999 FEW011 OVC038 08/06 Q1022 R88/D NOSIG
Conditions at: UBBB (BAKU/BINE ARPT , AZ) observed 1900 UTC 22 March 2019
Temperature: 8.0°C (46°F)
Dewpoint: 6.0°C (43°F) [RH = 87%]
Pressure (altimeter): 30.18 inches Hg (1022.0 mb)
Winds: from the NW (320 degrees) at 13 MPH (11 knots; 5.7 m/s)
Visibility: 6 or more miles (10+ km)
Ceiling: 3800 feet AGL
Clouds: few clouds at 1100 feet AGL
overcast cloud deck at 3800 feet AGL
Weather: no significant weather observed at this time

METAR text: UBBB 221830Z 32012KT 9999 SCT011 OVC036 08/06 Q1022 R88/D NOSIG
Conditions at: UBBB (BAKU/BINE ARPT , AZ) observed 1830 UTC 22 March 2019
Temperature: 8.0°C (46°F)
Dewpoint: 6.0°C (43°F) [RH = 87%]
Pressure (altimeter): 30.18 inches Hg (1022.0 mb)
Winds: from the NW (320 degrees) at 14 MPH (12 knots; 6.2 m/s)
Visibility: 6 or more miles (10+ km)
Ceiling: 3600 feet AGL
Clouds: scattered clouds at 1100 feet AGL
overcast cloud deck at 3600 feet AGL
Weather: no significant weather observed at this time

METAR text: UBBB 221800Z 32012KT 9999 SCT013 BKN040 08/06 Q1022 R88/D NOSIG
Conditions at: UBBB (BAKU/BINE ARPT , AZ) observed 1800 UTC 22 March 2019
Temperature: 8.0°C (46°F)
Dewpoint: 6.0°C (43°F) [RH = 87%]
Pressure (altimeter): 30.18 inches Hg (1022.0 mb)
Winds: from the NW (320 degrees) at 14 MPH (12 knots; 6.2 m/s)
Visibility: 6 or more miles (10+ km)
Ceiling: 4000 feet AGL
Clouds: scattered clouds at 1300 feet AGL
broken clouds at 4000 feet AGL
Weather: no significant weather observed at this time

METAR text: UBBB 221730Z 32010KT 9999 SCT011 BKN043 08/07 Q1021 R88/D NOSIG
Conditions at: UBBB (BAKU/BINE ARPT , AZ) observed 1730 UTC 22 March 2019
Temperature: 8.0°C (46°F)
Dewpoint: 7.0°C (45°F) [RH = 93%]
Pressure (altimeter): 30.15 inches Hg (1021.0 mb)
Winds: from the NW (320 degrees) at 12 MPH (10 knots; 5.1 m/s)
Visibility: 6 or more miles (10+ km)
Ceiling: 4300 feet AGL
Clouds: scattered clouds at 1100 feet AGL
broken clouds at 4300 feet AGL
Weather: no significant weather observed at this time

METAR text: UBBB 221700Z 32009KT 9999 SCT011 BKN043 08/07 Q1021 R88/D NOSIG
Conditions at: UBBB (BAKU/BINE ARPT , AZ) observed 1700 UTC 22 March 2019
Temperature: 8.0°C (46°F)
Dewpoint: 7.0°C (45°F) [RH = 93%]
Pressure (altimeter): 30.15 inches Hg (1021.0 mb)
Winds: from the NW (320 degrees) at 10 MPH (9 knots; 4.6 m/s)
Visibility: 6 or more miles (10+ km)
Ceiling: 4300 feet AGL
Clouds: scattered clouds at 1100 feet AGL
broken clouds at 4300 feet AGL
Weather: no significant weather observed at this time

METAR text: UBBB 221630Z 32008KT 9999 BKN045 08/07 Q1021 R88/D NOSIG
Conditions at: UBBB (BAKU/BINE ARPT , AZ) observed 1630 UTC 22 March 2019
Temperature: 8.0°C (46°F)
Dewpoint: 7.0°C (45°F) [RH = 93%]
Pressure (altimeter): 30.15 inches Hg (1021.0 mb)
Winds: from the NW (320 degrees) at 9 MPH (8 knots; 4.1 m/s)
Visibility: 6 or more miles (10+ km)
Ceiling: 4500 feet AGL
Clouds: broken clouds at 4500 feet AGL
Weather: no significant weather observed at this time

METAR text: UBBB 221600Z 32008KT 9999 SCT044 BKN100 08/07 Q1021 R88/D NOSIG
Conditions at: UBBB (BAKU/BINE ARPT , AZ) observed 1600 UTC 22 March 2019
Temperature: 8.0°C (46°F)
Dewpoint: 7.0°C (45°F) [RH = 93%]
Pressure (altimeter): 30.15 inches Hg (1021.0 mb)
Winds: from the NW (320 degrees) at 9 MPH (8 knots; 4.1 m/s)
Visibility: 6 or more miles (10+ km)
Ceiling: 10000 feet AGL
Clouds: scattered clouds at 4400 feet AGL
broken clouds at 10000 feet AGL
Weather: no significant weather observed at this time

METAR text: UBBB 221530Z 33007KT CAVOK 08/06 Q1021 R88/D NOSIG
Conditions at: UBBB (BAKU/BINE ARPT , AZ) observed 1530 UTC 22 March 2019
Temperature: 8.0°C (46°F)
Dewpoint: 6.0°C (43°F) [RH = 87%]
Pressure (altimeter): 30.15 inches Hg (1021.0 mb)
Winds: from the NNW (330 degrees) at 8 MPH (7 knots; 3.6 m/s)
Visibility: 6 or more miles (10+ km)
Ceiling: ceiling and visibility are OK
Clouds: unknown
Weather: no significant weather observed at this time

METAR text: UBBB 221500Z 33009KT CAVOK 09/07 Q1020 R88/D NOSIG
Conditions at: UBBB (BAKU/BINE ARPT , AZ) observed 1500 UTC 22 March 2019
Temperature: 9.0°C (48°F)
Dewpoint: 7.0°C (45°F) [RH = 87%]
Pressure (altimeter): 30.12 inches Hg (1020.0 mb)
Winds: from the NNW (330 degrees) at 10 MPH (9 knots; 4.6 m/s)
Visibility: 6 or more miles (10+ km)
Ceiling: ceiling and visibility are OK
Clouds: unknown
Weather: no significant weather observed at this time

METAR text: UBBB 221430Z 33008KT CAVOK 09/06 Q1020 R88/CLRD// NOSIG
Conditions at: UBBB (BAKU/BINE ARPT , AZ) observed 1430 UTC 22 March 2019
Temperature: 9.0°C (48°F)
Dewpoint: 6.0°C (43°F) [RH = 81%]
Pressure (altimeter): 30.12 inches Hg (1020.0 mb)
Winds: from the NNW (330 degrees) at 9 MPH (8 knots; 4.1 m/s)
Visibility: 6 or more miles (10+ km)
Ceiling: ceiling and visibility are OK
Clouds: unknown
Weather: no significant weather observed at this time

METAR text: UBBB 221400Z 32009KT CAVOK 10/07 Q1020 R88/CLRD// NOSIG
Conditions at: UBBB (BAKU/BINE ARPT , AZ) observed 1400 UTC 22 March 2019
Temperature: 10.0°C (50°F)
Dewpoint: 7.0°C (45°F) [RH = 82%]
Pressure (altimeter): 30.12 inches Hg (1020.0 mb)
Winds: from the NW (320 degrees) at 10 MPH (9 knots; 4.6 m/s)
Visibility: 6 or more miles (10+ km)
Ceiling: ceiling and visibility are OK
Clouds: unknown
Weather: no significant weather observed at this time

METAR text: UBBB 221330Z 31010KT CAVOK 10/06 Q1020 R88/CLRD// NOSIG
Conditions at: UBBB (BAKU/BINE ARPT , AZ) observed 1330 UTC 22 March 2019
Temperature: 10.0°C (50°F)
Dewpoint: 6.0°C (43°F) [RH = 76%]
Pressure (altimeter): 30.12 inches Hg (1020.0 mb)
Winds: from the NW (310 degrees) at 12 MPH (10 knots; 5.1 m/s)
Visibility: 6 or more miles (10+ km)
Ceiling: ceiling and visibility are OK
Clouds: unknown
Weather: no significant weather observed at this time

METAR text: UBBB 221300Z 33011KT CAVOK 11/06 Q1020 R88/D NOSIG
Conditions at: UBBB (BAKU/BINE ARPT , AZ) observed 1300 UTC 22 March 2019
Temperature: 11.0°C (52°F)
Dewpoint: 6.0°C (43°F) [RH = 71%]
Pressure (altimeter): 30.12 inches Hg (1020.0 mb)
Winds: from the NNW (330 degrees) at 13 MPH (11 knots; 5.7 m/s)
Visibility: 6 or more miles (10+ km)
Ceiling: ceiling and visibility are OK
Clouds: unknown
Weather: no significant weather observed at this time

METAR text: UBBB 221230Z 32011KT CAVOK 11/06 Q1020 R88/D NOSIG
Conditions at: UBBB (BAKU/BINE ARPT , AZ) observed 1230 UTC 22 March 2019
Temperature: 11.0°C (52°F)
Dewpoint: 6.0°C (43°F) [RH = 71%]
Pressure (altimeter): 30.12 inches Hg (1020.0 mb)
Winds: from the NW (320 degrees) at 13 MPH (11 knots; 5.7 m/s)
Visibility: 6 or more miles (10+ km)
Ceiling: ceiling and visibility are OK
Clouds: unknown
Weather: no significant weather observed at this time

METAR text: UBBB 221200Z 33009KT CAVOK 12/07 Q1020 R88/D NOSIG
Conditions at: UBBB (BAKU/BINE ARPT , AZ) observed 1200 UTC 22 March 2019
Temperature: 12.0°C (54°F)
Dewpoint: 7.0°C (45°F) [RH = 71%]
Pressure (altimeter): 30.12 inches Hg (1020.0 mb)
Winds: from the NNW (330 degrees) at 10 MPH (9 knots; 4.6 m/s)
Visibility: 6 or more miles (10+ km)
Ceiling: ceiling and visibility are OK
Clouds: unknown
Weather: no significant weather observed at this time

METAR text: UBBB 221130Z 32011KT CAVOK 12/07 Q1020 R88/D NOSIG
Conditions at: UBBB (BAKU/BINE ARPT , AZ) observed 1130 UTC 22 March 2019
Temperature: 12.0°C (54°F)
Dewpoint: 7.0°C (45°F) [RH = 71%]
Pressure (altimeter): 30.12 inches Hg (1020.0 mb)
Winds: from the NW (320 degrees) at 13 MPH (11 knots; 5.7 m/s)
Visibility: 6 or more miles (10+ km)
Ceiling: ceiling and visibility are OK
Clouds: unknown
Weather: no significant weather observed at this time

METAR text: UBBB 221100Z 32010KT CAVOK 13/06 Q1020 R88/D NOSIG
Conditions at: UBBB (BAKU/BINE ARPT , AZ) observed 1100 UTC 22 March 2019
Temperature: 13.0°C (55°F)
Dewpoint: 6.0°C (43°F) [RH = 62%]
Pressure (altimeter): 30.12 inches Hg (1020.0 mb)
Winds: from the NW (320 degrees) at 12 MPH (10 knots; 5.1 m/s)
Visibility: 6 or more miles (10+ km)
Ceiling: ceiling and visibility are OK
Clouds: unknown
Weather: no significant weather observed at this time

METAR text: UBBB 221030Z 33011KT CAVOK 13/06 Q1020 R88/D NOSIG
Conditions at: UBBB (BAKU/BINE ARPT , AZ) observed 1030 UTC 22 March 2019
Temperature: 13.0°C (55°F)
Dewpoint: 6.0°C (43°F) [RH = 62%]
Pressure (altimeter): 30.12 inches Hg (1020.0 mb)
Winds: from the NNW (330 degrees) at 13 MPH (11 knots; 5.7 m/s)
Visibility: 6 or more miles (10+ km)
Ceiling: ceiling and visibility are OK
Clouds: unknown
Weather: no significant weather observed at this time

Forecast for: UBBB (BAKU/BINE ARPT , AZ)
Text: TAF UBBB 231718Z 2318/2418 18016G26KT 8000 BKN006 TX10/2411Z TN04/2404Z
Forecast period: 1800 to 2100 UTC 23 March 2019
Forecast type: FROM: standard forecast or significant change
Winds: from the S (180 degrees) at 18 MPH (16 knots; 8.2 m/s)
gusting to 30 MPH (26 knots; 13.4 m/s)
Visibility: 5 miles (8 km)
Ceiling: 600 feet AGL
Clouds: broken clouds at 600 feet AGL
Weather: no significant weather forecast for this period
Text: TEMPO 2318/2321 5000 BR BKN004
Forecast period: 1800 to 2100 UTC 23 March 2019
Forecast type: TEMPORARY: The following changes expected for less than half the time period
Visibility: 3 miles (5 km)
Ceiling: 400 feet AGL
Clouds: broken clouds at 400 feet AGL
Weather: BR  (mist)
Text: BECMG 2321/2322 18010KT 3000 BR BKN004
Forecast period: 2100 UTC 23 March 2019 to 0100 UTC 24 March 2019
Forecast type: BECOMING: Conditions expected to become as follows by 2200 UTC 23 March 2019
Winds: from the S (180 degrees) at 12 MPH (10 knots; 5.1 m/s)
Visibility: 1.86 miles (2.99 km)
Ceiling: 400 feet AGL
Clouds: broken clouds at 400 feet AGL
Weather: BR  (mist)
Text: TEMPO 2322/2401 VRB04KT 0800 FG BKN002
Forecast period: 2200 UTC 23 March 2019 to 0100 UTC 24 March 2019
Forecast type: TEMPORARY: The following changes expected for less than half the time period
Winds: variable direction winds at 5 MPH (4 knots; 2.1 m/s)
Visibility: 0.50 miles (0.80 km)
Ceiling: 200 feet AGL
Clouds: broken clouds at 200 feet AGL
Weather: FG  (fog)
Text: BECMG 2401/2403 33016KT 8000 NSW BKN007 BKN025 BKN100
Forecast period: 0100 to 1800 UTC 24 March 2019
Forecast type: BECOMING: Conditions expected to become as follows by 0300 UTC 24 March 2019
Winds: from the NNW (330 degrees) at 18 MPH (16 knots; 8.2 m/s)
Visibility: 5 miles (8 km)
Ceiling: 700 feet AGL
Clouds: broken clouds at 700 feet AGL
broken clouds at 2500 feet AGL
broken clouds at 10000 feet AGL
Weather: NSW  (no significant weather)
Text: TEMPO 2403/2407 3000 BR BKN003
Forecast period: 0300 to 0700 UTC 24 March 2019
Forecast type: TEMPORARY: The following changes expected for less than half the time period
Visibility: 1.86 miles (2.99 km)
Ceiling: 300 feet AGL
Clouds: broken clouds at 300 feet AGL
Weather: BR  (mist)